Time;durP1;ratioP1;P1;durP2;ratioP2;P2;SDS_P1;SDS_P2;PMS_P1;PMS_P2;Temp;Humidity;BMP_temperature;BMP_pressure;BME280_temperature;BME280_humidity;BME280_pressure;Samples;Min_cycle;Max_cycle;Signal;HPM_P1;HPM_P2
2023/03/15 00:02:00;;;;;;;3.40;3.00;;;2.90;99.90;;;;;;4973019;28;20431;-66
2023/03/15 00:04:26;;;;;;;4.87;4.47;;;3.00;99.90;;;;;;4971494;28;20444;-66
2023/03/15 00:06:52;;;;;;;7.70;3.50;;;3.00;99.90;;;;;;4970720;28;20459;-66
2023/03/15 00:09:18;;;;;;;3.80;3.07;;;3.00;99.90;;;;;;4970309;28;20442;-66
2023/03/15 00:11:44;;;;;;;4.43;3.70;;;3.00;99.90;;;;;;4973198;28;20476;-66
2023/03/15 00:14:10;;;;;;;4.57;4.03;;;3.00;99.90;;;;;;4974908;28;20470;-65
2023/03/15 00:16:36;;;;;;;5.70;3.87;;;3.10;99.90;;;;;;4971745;28;20279;-66
2023/03/15 00:19:01;;;;;;;4.67;4.27;;;3.10;99.90;;;;;;4970143;28;20559;-66
2023/03/15 00:21:28;;;;;;;5.20;4.57;;;3.10;99.90;;;;;;4971096;28;20184;-66
2023/03/15 00:23:54;;;;;;;3.20;2.87;;;3.10;99.90;;;;;;4973294;28;20192;-66
2023/03/15 00:26:20;;;;;;;3.43;3.13;;;3.10;99.90;;;;;;4973479;28;20509;-66
2023/03/15 00:28:45;;;;;;;4.67;3.93;;;3.10;99.90;;;;;;4971418;28;20534;-66
2023/03/15 00:31:20;;;;;;;8.40;4.97;;;3.00;99.90;;;;;;4971895;28;20200;-66
2023/03/15 00:33:46;;;;;;;5.00;4.57;;;3.00;99.90;;;;;;4971412;28;20172;-66
2023/03/15 00:36:12;;;;;;;4.43;3.80;;;3.10;99.90;;;;;;4972339;28;22178;-66
2023/03/15 00:38:39;;;;;;;8.50;4.37;;;3.10;99.90;;;;;;4971986;28;20440;-65
2023/03/15 00:41:08;;;;;;;7.13;4.20;;;3.10;99.90;;;;;;4970765;28;20511;-66
2023/03/15 00:43:34;;;;;;;6.50;3.87;;;3.10;99.90;;;;;;4970030;28;20440;-66
2023/03/15 00:46:00;;;;;;;6.50;4.60;;;3.20;99.90;;;;;;4972378;28;20888;-66
2023/03/15 00:48:26;;;;;;;5.80;4.17;;;3.20;99.90;;;;;;4971349;28;20898;-66
2023/03/15 00:51:00;;;;;;;5.23;3.83;;;3.20;99.90;;;;;;4972766;28;20566;-66
2023/03/15 00:53:25;;;;;;;4.80;4.00;;;3.20;99.90;;;;;;4969913;28;20234;-66
2023/03/15 00:55:51;;;;;;;6.43;4.20;;;3.10;99.90;;;;;;4970788;28;20953;-66
2023/03/15 00:58:16;;;;;;;7.23;3.63;;;3.10;99.90;;;;;;4970036;28;20188;-66
2023/03/15 01:00:42;;;;;;;5.17;3.80;;;3.10;99.90;;;;;;4973788;28;20222;-66
2023/03/15 01:03:07;;;;;;;6.93;4.20;;;3.10;99.90;;;;;;4971759;28;20558;-66
2023/03/15 01:05:33;;;;;;;10.13;4.90;;;3.00;99.90;;;;;;4972046;28;20200;-66
2023/03/15 01:07:58;;;;;;;8.43;4.23;;;2.90;99.90;;;;;;4970237;28;20207;-66
2023/03/15 01:10:24;;;;;;;6.57;4.20;;;2.90;99.90;;;;;;4969535;28;20199;-66
2023/03/15 01:12:49;;;;;;;5.93;4.20;;;2.90;99.90;;;;;;4972706;28;20207;-66
2023/03/15 01:15:15;;;;;;;6.07;3.90;;;2.90;99.90;;;;;;4972049;28;20200;-65
2023/03/15 01:17:41;;;;;;;4.40;3.33;;;2.90;99.90;;;;;;4971688;28;20227;-66
2023/03/15 01:20:08;;;;;;;4.57;3.30;;;2.90;99.90;;;;;;4969689;28;20271;-66
2023/03/15 01:22:33;;;;;;;5.03;3.90;;;2.80;99.90;;;;;;4971527;28;20479;-66
2023/03/15 01:24:59;;;;;;;7.33;4.23;;;2.80;99.90;;;;;;4971186;28;20463;-66
2023/03/15 01:27:25;;;;;;;8.60;3.97;;;2.80;99.90;;;;;;4971175;28;20251;-66
2023/03/15 01:29:50;;;;;;;6.70;4.70;;;2.70;99.90;;;;;;4970041;28;20581;-66
2023/03/15 01:32:16;;;;;;;5.70;2.80;;;2.60;99.90;;;;;;4970309;28;20211;-66
2023/03/15 01:34:42;;;;;;;4.43;3.10;;;2.60;99.90;;;;;;4971107;28;20206;-65
2023/03/15 01:37:08;;;;;;;6.20;3.40;;;2.50;99.90;;;;;;4971960;28;20556;-66
2023/03/15 01:39:34;;;;;;;3.20;2.40;;;2.40;99.90;;;;;;4971059;28;20459;-65
2023/03/15 01:42:00;;;;;;;9.60;2.67;;;2.30;99.90;;;;;;4970981;28;20432;-66
2023/03/15 01:44:58;;;;;;;2.97;2.60;;;2.40;99.90;;;;;;4970261;28;20172;-66
2023/03/15 01:47:25;;;;;;;5.37;3.37;;;2.40;99.90;;;;;;4971179;28;20462;-66
2023/03/15 01:50:07;;;;;;;3.77;2.30;;;2.30;99.90;;;;;;4971524;28;20484;-67
2023/03/15 01:52:36;;;;;;;3.70;2.80;;;2.30;99.90;;;;;;4970276;28;20439;-66
2023/03/15 01:55:13;;;;;;;7.63;2.90;;;2.30;99.90;;;;;;4969697;28;20514;-68
2023/03/15 01:57:50;;;;;;;6.40;3.00;;;2.20;99.90;;;;;;4970130;28;20498;-64
2023/03/15 02:00:19;;;;;;;4.50;2.80;;;2.20;99.90;;;;;;4969332;28;20443;-68
2023/03/15 02:03:13;;;;;;;7.23;2.43;;;2.20;99.90;;;;;;4971698;28;20439;-67
2023/03/15 02:05:45;;;;;;;3.50;2.30;;;2.30;99.90;;;;;;4973172;28;20462;-68
2023/03/15 02:08:11;;;;;;;2.40;2.20;;;2.30;99.90;;;;;;4971295;28;20443;-67
2023/03/15 02:10:41;;;;;;;6.87;2.47;;;2.30;99.90;;;;;;4970121;28;20459;-67
2023/03/15 02:13:07;;;;;;;2.60;2.10;;;2.20;99.90;;;;;;4971132;28;21002;-66
2023/03/15 02:15:33;;;;;;;8.77;2.67;;;2.20;99.90;;;;;;4973655;28;20477;-68
2023/03/15 02:17:59;;;;;;;2.33;2.07;;;2.10;99.90;;;;;;4978401;28;21027;-66
2023/03/15 02:20:59;;;;;;;4.80;2.00;;;2.10;99.90;;;;;;4974422;28;20211;-68
2023/03/15 02:23:26;;;;;;;3.80;2.10;;;2.10;99.90;;;;;;4976747;28;20212;-65
2023/03/15 02:25:54;;;;;;;4.73;2.50;;;2.10;99.90;;;;;;4970085;28;20466;-68
2023/03/15 02:28:21;;;;;;;3.00;2.60;;;2.00;99.90;;;;;;4969459;28;20427;-68
2023/03/15 02:30:47;;;;;;;4.17;2.77;;;2.10;99.90;;;;;;4970794;28;20482;-69
2023/03/15 02:33:30;;;;;;;4.43;1.53;;;2.10;99.90;;;;;;4973149;28;20437;-69
2023/03/15 02:36:18;;;;;;;3.67;2.37;;;2.00;99.90;;;;;;4973499;28;20455;-67
2023/03/15 02:38:44;;;;;;;5.70;2.03;;;2.00;99.90;;;;;;4973715;28;20428;-66
2023/03/15 02:41:11;;;;;;;3.97;2.00;;;2.00;99.90;;;;;;4974204;28;20529;-68
2023/03/15 02:43:38;;;;;;;3.40;2.00;;;2.00;99.90;;;;;;4973976;28;20596;-69
2023/03/15 02:46:04;;;;;;;3.57;1.43;;;2.00;99.90;;;;;;4973981;28;20995;-66
2023/03/15 02:48:34;;;;;;;3.13;1.73;;;2.00;99.90;;;;;;4973950;28;20431;-68
2023/03/15 02:51:01;;;;;;;3.67;1.37;;;2.00;99.90;;;;;;4973321;28;20468;-69
2023/03/15 02:53:29;;;;;;;4.77;1.90;;;2.00;99.90;;;;;;4971105;28;20434;-68
2023/03/15 02:55:54;;;;;;;3.00;1.80;;;1.90;99.90;;;;;;4972907;28;20863;-69
2023/03/15 02:58:20;;;;;;;2.20;1.77;;;1.90;99.90;;;;;;4972950;28;20482;-67
2023/03/15 03:00:45;;;;;;;2.37;1.47;;;1.90;99.90;;;;;;4973588;28;20189;-69
2023/03/15 03:03:11;;;;;;;11.40;1.60;;;1.90;99.90;;;;;;4973805;28;20180;-68
2023/03/15 03:05:36;;;;;;;3.77;2.10;;;1.90;99.90;;;;;;4971992;28;20216;-67
2023/03/15 03:08:02;;;;;;;6.10;1.53;;;1.90;99.90;;;;;;4973219;28;20180;-69
2023/03/15 03:10:28;;;;;;;3.23;1.43;;;1.90;99.90;;;;;;4973689;28;20372;-67
2023/03/15 03:12:54;;;;;;;6.10;1.83;;;1.90;99.90;;;;;;4973217;28;20196;-68
2023/03/15 03:15:20;;;;;;;2.93;1.97;;;1.90;99.90;;;;;;4972359;28;21184;-66
2023/03/15 03:17:46;;;;;;;3.00;1.60;;;1.90;99.90;;;;;;4972208;28;20251;-67
2023/03/15 03:20:12;;;;;;;4.27;1.80;;;1.80;99.90;;;;;;4971311;28;20518;-68
2023/03/15 03:22:39;;;;;;;3.30;1.70;;;1.80;99.90;;;;;;4973854;28;20215;-67
2023/03/15 03:25:06;;;;;;;5.70;1.83;;;1.80;99.90;;;;;;4973820;28;20442;-67
2023/03/15 03:27:35;;;;;;;6.73;2.00;;;1.70;99.90;;;;;;4973119;28;20438;-68
2023/03/15 03:30:06;;;;;;;7.40;2.47;;;1.70;99.90;;;;;;4971865;28;20440;-67
2023/03/15 03:32:32;;;;;;;5.47;2.17;;;1.70;99.90;;;;;;4973616;28;20439;-69
2023/03/15 03:34:57;;;;;;;5.40;2.50;;;1.70;99.90;;;;;;4981392;28;20427;-64
2023/03/15 03:37:23;;;;;;;8.77;3.40;;;1.70;99.90;;;;;;4973120;28;20172;-68
2023/03/15 03:39:48;;;;;;;10.30;2.60;;;1.70;99.90;;;;;;4972899;28;20184;-66
2023/03/15 03:42:14;;;;;;;4.63;2.30;;;1.70;99.90;;;;;;4980689;28;20234;-66
2023/03/15 03:44:40;;;;;;;3.23;1.67;;;1.70;99.90;;;;;;4987808;28;20192;-68
2023/03/15 03:47:06;;;;;;;2.30;1.90;;;1.70;99.90;;;;;;5002690;23;20227;-67
2023/03/15 03:49:31;;;;;;;2.43;2.23;;;1.70;99.90;;;;;;4993906;28;20446;-68
2023/03/15 03:51:59;;;;;;;3.00;2.73;;;1.60;99.90;;;;;;5006814;28;20830;-68
2023/03/15 03:54:24;;;;;;;5.13;2.70;;;1.60;99.90;;;;;;5009235;28;20175;-67
2023/03/15 03:56:50;;;;;;;4.93;2.27;;;1.50;99.90;;;;;;4979205;28;20486;-67
2023/03/15 03:59:16;;;;;;;3.93;2.50;;;1.50;99.90;;;;;;4974306;28;20180;-70
2023/03/15 04:01:42;;;;;;;5.73;2.53;;;1.50;99.90;;;;;;4973000;28;20641;-68
2023/03/15 04:04:07;;;;;;;6.80;2.80;;;1.50;99.90;;;;;;4982623;28;20187;-68
2023/03/15 04:06:33;;;;;;;5.10;2.47;;;1.40;99.90;;;;;;4984246;28;20211;-67
2023/03/15 04:09:02;;;;;;;7.63;2.90;;;1.50;99.90;;;;;;4984055;28;20188;-67
2023/03/15 04:11:28;;;;;;;2.47;2.27;;;1.50;99.90;;;;;;4974563;28;20463;-69
2023/03/15 04:13:53;;;;;;;5.67;3.07;;;1.50;99.90;;;;;;4974172;28;20575;-67
2023/03/15 04:16:19;;;;;;;6.00;2.20;;;1.40;99.90;;;;;;4982691;28;20252;-67
2023/03/15 04:18:45;;;;;;;6.00;2.87;;;1.50;99.90;;;;;;4976205;28;20270;-70
2023/03/15 04:21:11;;;;;;;7.23;2.70;;;1.40;99.90;;;;;;4983555;28;20636;-67
2023/03/15 04:23:37;;;;;;;6.00;2.90;;;1.40;99.90;;;;;;4972443;28;20499;-67
2023/03/15 04:26:04;;;;;;;3.67;2.13;;;1.40;99.90;;;;;;4973817;28;20691;-67
2023/03/15 04:28:30;;;;;;;6.77;2.80;;;1.40;99.90;;;;;;4979360;28;20467;-68
2023/03/15 04:30:57;;;;;;;5.23;3.20;;;1.40;99.90;;;;;;4979967;28;21008;-68
2023/03/15 04:33:23;;;;;;;11.20;4.27;;;1.40;99.90;;;;;;4973599;28;20443;-68
2023/03/15 04:35:51;;;;;;;5.87;2.70;;;1.40;99.90;;;;;;4965850;28;20459;-68
2023/03/15 04:38:17;;;;;;;3.03;2.70;;;1.30;99.90;;;;;;4980441;28;20863;-69
2023/03/15 04:40:42;;;;;;;3.40;2.53;;;1.40;99.90;;;;;;4976084;28;20435;-68
2023/03/15 04:43:08;;;;;;;3.40;3.00;;;1.40;99.90;;;;;;4984248;28;20206;-67
2023/03/15 04:45:33;;;;;;;5.33;2.90;;;1.30;99.90;;;;;;4980807;28;20226;-71
2023/03/15 04:48:00;;;;;;;5.77;3.60;;;1.30;99.90;;;;;;4971954;28;20261;-67
2023/03/15 04:50:26;;;;;;;5.83;3.67;;;1.30;99.90;;;;;;4966094;28;20209;-68
2023/03/15 04:52:52;;;;;;;6.07;3.30;;;1.30;99.90;;;;;;4969037;28;20439;-67
2023/03/15 04:55:17;;;;;;;5.00;2.90;;;1.20;99.90;;;;;;4976868;28;20443;-67
2023/03/15 04:57:43;;;;;;;6.70;4.60;;;1.20;99.90;;;;;;4980963;28;20653;-69
2023/03/15 05:00:11;;;;;;;6.43;3.87;;;1.10;99.90;;;;;;4971281;28;20611;-70
2023/03/15 05:02:40;;;;;;;9.67;4.10;;;1.10;99.90;;;;;;4975013;28;20192;-70
2023/03/15 05:05:07;;;;;;;8.87;3.90;;;1.10;99.90;;;;;;4982031;28;20870;-69
2023/03/15 05:07:34;;;;;;;5.90;3.53;;;1.10;99.90;;;;;;4976124;28;20452;-70
2023/03/15 05:10:00;;;;;;;4.23;3.30;;;1.00;99.90;;;;;;4978513;28;21003;-69
2023/03/15 05:12:26;;;;;;;6.90;4.37;;;1.00;99.90;;;;;;4972210;28;20439;-70
2023/03/15 05:14:51;;;;;;;12.40;6.43;;;1.00;99.90;;;;;;4980845;28;20808;-68
2023/03/15 05:17:17;;;;;;;9.60;4.40;;;1.00;99.90;;;;;;4970266;28;20619;-68
2023/03/15 05:19:42;;;;;;;5.70;4.20;;;1.00;99.90;;;;;;4979136;28;20181;-69
2023/03/15 05:22:08;;;;;;;12.80;4.20;;;1.00;99.90;;;;;;4972630;28;20185;-69
2023/03/15 05:24:33;;;;;;;12.03;4.83;;;1.00;99.90;;;;;;4977628;28;20176;-68
2023/03/15 05:26:59;;;;;;;11.90;5.53;;;1.00;99.90;;;;;;4984097;28;20203;-69
2023/03/15 05:29:25;;;;;;;4.07;3.67;;;1.00;99.90;;;;;;4974361;28;20183;-68
2023/03/15 05:31:51;;;;;;;16.97;5.40;;;1.00;99.90;;;;;;4969094;28;20208;-69
2023/03/15 05:34:17;;;;;;;5.13;4.40;;;1.00;99.90;;;;;;4972654;28;20176;-69
2023/03/15 05:36:43;;;;;;;6.47;4.10;;;0.90;99.90;;;;;;4981575;28;20886;-68
2023/03/15 05:39:10;;;;;;;7.33;4.77;;;1.00;99.90;;;;;;4980634;28;20471;-68
2023/03/15 05:41:36;;;;;;;6.30;4.07;;;1.00;99.90;;;;;;4969900;28;20180;-68
2023/03/15 05:44:02;;;;;;;6.80;5.10;;;1.00;99.90;;;;;;4967681;28;20439;-68
2023/03/15 05:46:28;;;;;;;3.67;3.30;;;1.00;99.90;;;;;;4969733;28;20487;-68
2023/03/15 05:48:54;;;;;;;6.50;3.97;;;1.10;99.90;;;;;;4968082;28;20802;-68
2023/03/15 05:51:19;;;;;;;9.33;4.40;;;1.10;99.90;;;;;;4973272;28;20192;-68
2023/03/15 05:53:45;;;;;;;8.37;4.70;;;1.10;99.90;;;;;;4971929;28;20176;-68
2023/03/15 05:56:10;;;;;;;8.80;4.50;;;1.00;99.90;;;;;;4973158;28;20185;-68
2023/03/15 05:58:36;;;;;;;8.70;4.50;;;1.00;99.90;;;;;;4971809;28;20558;-69
2023/03/15 06:01:03;;;;;;;11.23;4.37;;;1.00;99.90;;;;;;4971947;28;20231;-69
2023/03/15 06:03:30;;;;;;;5.40;4.10;;;1.00;99.90;;;;;;4973206;28;20363;-68
2023/03/15 06:05:56;;;;;;;6.50;4.70;;;1.00;99.90;;;;;;4975995;28;20435;-68
2023/03/15 06:08:21;;;;;;;9.43;5.67;;;1.00;99.90;;;;;;4976472;28;20419;-68
2023/03/15 06:10:47;;;;;;;9.00;5.43;;;1.10;99.90;;;;;;4977035;28;20481;-69
2023/03/15 06:13:12;;;;;;;8.37;5.00;;;1.20;99.90;;;;;;4977130;28;20164;-70
2023/03/15 06:15:38;;;;;;;11.20;4.43;;;1.30;99.90;;;;;;4975905;28;20861;-68
2023/03/15 06:18:04;;;;;;;11.17;5.10;;;1.60;99.90;;;;;;4976483;28;20176;-68
2023/03/15 06:20:30;;;;;;;6.20;4.37;;;1.70;99.90;;;;;;4975855;28;20625;-70
2023/03/15 06:22:57;;;;;;;11.67;5.10;;;2.00;99.90;;;;;;4976529;28;20677;-67
2023/03/15 06:25:23;;;;;;;4.50;4.07;;;2.10;99.90;;;;;;4976784;28;20427;-68
2023/03/15 06:27:48;;;;;;;5.77;4.17;;;2.20;99.90;;;;;;4976887;28;20206;-68
2023/03/15 06:30:14;;;;;;;9.00;4.70;;;2.30;99.90;;;;;;4974844;28;20466;-71
2023/03/15 06:32:40;;;;;;;5.60;4.20;;;2.40;99.90;;;;;;4975890;28;20180;-68
2023/03/15 06:35:06;;;;;;;9.20;5.17;;;2.50;99.90;;;;;;4976483;28;20477;-68
2023/03/15 06:37:31;;;;;;;6.47;4.17;;;2.60;99.90;;;;;;4976644;28;20736;-68
2023/03/15 06:39:57;;;;;;;5.63;3.93;;;2.80;99.90;;;;;;4974634;28;20423;-70
2023/03/15 06:42:23;;;;;;;7.37;4.47;;;2.90;99.90;;;;;;4976413;28;20176;-68
2023/03/15 06:44:48;;;;;;;4.70;4.23;;;3.00;99.90;;;;;;4976645;28;20181;-68
2023/03/15 06:47:14;;;;;;;5.40;4.03;;;3.10;99.90;;;;;;4976299;28;20585;-70
2023/03/15 06:49:39;;;;;;;5.80;4.00;;;3.20;99.90;;;;;;4975163;28;20176;-68
2023/03/15 06:52:06;;;;;;;14.03;4.33;;;3.30;99.90;;;;;;4976377;28;20291;-68
2023/03/15 06:54:31;;;;;;;5.30;3.70;;;3.30;99.90;;;;;;4976402;28;20308;-68
2023/03/15 06:56:57;;;;;;;5.83;4.20;;;3.50;99.90;;;;;;4976269;28;20530;-69
2023/03/15 06:59:23;;;;;;;7.00;3.90;;;3.70;99.90;;;;;;4975588;28;20192;-68
2023/03/15 07:01:48;;;;;;;11.43;4.80;;;3.70;99.90;;;;;;4976247;28;20188;-68
2023/03/15 07:04:14;;;;;;;7.67;3.60;;;3.70;99.90;;;;;;4976312;28;20793;-68
2023/03/15 07:06:40;;;;;;;6.90;3.03;;;3.80;99.90;;;;;;4975423;28;20219;-68
2023/03/15 07:09:06;;;;;;;4.73;3.13;;;3.90;99.90;;;;;;4975459;28;20773;-70
2023/03/15 07:11:32;;;;;;;5.97;3.23;;;3.80;99.90;;;;;;4976055;28;20218;-68
2023/03/15 07:13:57;;;;;;;9.10;3.53;;;3.80;99.90;;;;;;4975645;28;20455;-68
2023/03/15 07:16:24;;;;;;;9.20;3.20;;;4.00;99.90;;;;;;4974310;28;20579;-68
2023/03/15 07:18:49;;;;;;;8.80;2.93;;;4.10;99.90;;;;;;4966083;28;20185;-68
2023/03/15 07:21:15;;;;;;;7.30;4.33;;;4.30;99.90;;;;;;4974824;28;20443;-69
2023/03/15 07:23:40;;;;;;;12.70;4.57;;;4.50;99.90;;;;;;4975251;28;20272;-68
2023/03/15 07:26:06;;;;;;;4.27;3.13;;;4.50;99.90;;;;;;4974267;28;20208;-69
2023/03/15 07:28:32;;;;;;;11.00;3.67;;;4.60;99.90;;;;;;4974358;28;21020;-68
2023/03/15 07:31:03;;;;;;;9.57;3.47;;;4.50;99.90;;;;;;4975015;28;20296;-68
2023/03/15 07:33:31;;;;;;;5.47;3.17;;;4.30;99.90;;;;;;4975803;28;20173;-69
2023/03/15 07:35:56;;;;;;;7.60;3.30;;;4.30;99.90;;;;;;4975023;28;20459;-69
2023/03/15 07:38:23;;;;;;;6.50;3.23;;;4.30;99.90;;;;;;4973861;28;20447;-68
2023/03/15 07:40:49;;;;;;;6.90;3.57;;;4.50;99.90;;;;;;4974954;28;20188;-68
2023/03/15 07:43:15;;;;;;;6.83;3.13;;;4.60;99.90;;;;;;4974545;28;20995;-71
2023/03/15 07:45:41;;;;;;;5.83;3.27;;;4.60;99.90;;;;;;4973911;28;20239;-68
2023/03/15 07:48:06;;;;;;;4.00;3.17;;;4.80;99.90;;;;;;4974175;28;20292;-68
2023/03/15 07:50:32;;;;;;;3.83;3.33;;;5.00;99.90;;;;;;4974120;28;20550;-68
2023/03/15 07:52:58;;;;;;;7.57;4.00;;;5.00;99.90;;;;;;4973644;28;20641;-70
2023/03/15 07:55:24;;;;;;;3.47;3.17;;;5.10;99.90;;;;;;4973459;28;20180;-71
2023/03/15 07:57:50;;;;;;;5.50;2.83;;;5.10;99.90;;;;;;4974057;28;20292;-67
2023/03/15 08:00:17;;;;;;;3.60;2.60;;;5.30;99.90;;;;;;4973907;28;20895;-69
2023/03/15 08:02:42;;;;;;;6.77;2.13;;;5.40;99.90;;;;;;4969413;28;20471;-71
2023/03/15 08:05:09;;;;;;;7.37;2.83;;;5.40;99.90;;;;;;4974141;28;20474;-68
2023/03/15 08:07:35;;;;;;;5.97;3.23;;;5.50;99.90;;;;;;4974457;28;20195;-68
2023/03/15 08:10:05;;;;;;;3.30;2.50;;;5.30;99.90;;;;;;4973711;28;20447;-68
2023/03/15 08:12:30;;;;;;;6.23;2.80;;;5.60;99.90;;;;;;4974854;28;20439;-68
2023/03/15 08:14:56;;;;;;;4.37;2.67;;;5.80;99.90;;;;;;4974396;28;20443;-69
2023/03/15 08:17:21;;;;;;;5.07;2.37;;;6.00;99.90;;;;;;4974124;28;20200;-69
2023/03/15 08:19:47;;;;;;;7.83;2.77;;;6.10;99.90;;;;;;4972858;28;20637;-68
2023/03/15 08:22:12;;;;;;;3.00;2.70;;;6.40;99.90;;;;;;4973209;28;20701;-68
2023/03/15 08:24:38;;;;;;;6.50;3.10;;;6.50;99.90;;;;;;4972627;28;20222;-71
2023/03/15 08:27:04;;;;;;;2.67;2.47;;;6.60;99.90;;;;;;4974568;28;20200;-68
2023/03/15 08:29:30;;;;;;;5.17;2.33;;;6.80;99.90;;;;;;4973375;28;20192;-68
2023/03/15 08:31:56;;;;;;;5.87;2.57;;;7.20;99.90;;;;;;4973554;28;20208;-68
2023/03/15 08:34:23;;;;;;;4.63;3.17;;;7.20;99.90;;;;;;4973212;28;20452;-68
2023/03/15 08:36:48;;;;;;;6.17;3.77;;;7.60;99.90;;;;;;4973796;28;20473;-68
2023/03/15 08:39:14;;;;;;;5.97;2.07;;;7.80;99.90;;;;;;4973172;28;20507;-71
2023/03/15 08:41:40;;;;;;;6.93;2.93;;;7.90;99.90;;;;;;4974246;28;20186;-69
2023/03/15 08:44:06;;;;;;;4.27;2.60;;;7.90;99.90;;;;;;4972337;28;20223;-69
2023/03/15 08:46:32;;;;;;;3.33;2.20;;;7.80;99.90;;;;;;4972856;28;20216;-68
2023/03/15 08:48:58;;;;;;;3.70;2.70;;;8.00;99.90;;;;;;4971970;28;20466;-68
2023/03/15 08:51:25;;;;;;;3.10;2.70;;;8.20;99.90;;;;;;4974101;28;20486;-68
2023/03/15 08:53:51;;;;;;;2.43;2.23;;;8.80;99.90;;;;;;4974248;28;20957;-70
2023/03/15 08:56:17;;;;;;;3.67;2.27;;;9.40;99.90;;;;;;4974002;28;20447;-71
2023/03/15 08:58:42;;;;;;;6.60;2.57;;;9.40;99.90;;;;;;4973454;28;20435;-69
2023/03/15 09:01:11;;;;;;;2.87;2.67;;;9.40;99.90;;;;;;4974115;28;20993;-69
2023/03/15 09:03:36;;;;;;;5.30;2.53;;;9.40;99.90;;;;;;4974019;28;20177;-69
2023/03/15 09:06:02;;;;;;;4.93;2.70;;;8.90;99.90;;;;;;4973297;28;20451;-70
2023/03/15 09:08:27;;;;;;;5.03;2.30;;;9.10;99.90;;;;;;4973223;28;20195;-69
2023/03/15 09:10:57;;;;;;;5.43;2.80;;;9.10;99.90;;;;;;4973693;28;20674;-69
2023/03/15 09:13:23;;;;;;;5.03;2.50;;;9.40;99.90;;;;;;4973884;28;20169;-71
2023/03/15 09:15:50;;;;;;;5.87;3.40;;;9.60;99.90;;;;;;4973757;28;20953;-69
2023/03/15 09:18:16;;;;;;;7.27;3.07;;;9.60;99.90;;;;;;4973019;28;20415;-68
2023/03/15 09:20:42;;;;;;;5.27;2.67;;;9.30;99.90;;;;;;4973847;28;20427;-69
2023/03/15 09:23:07;;;;;;;5.53;2.47;;;9.40;99.90;;;;;;4972680;28;20446;-70
2023/03/15 09:25:35;;;;;;;7.00;2.30;;;9.30;99.90;;;;;;4972982;28;20207;-68
2023/03/15 09:28:01;;;;;;;5.50;2.30;;;8.60;99.90;;;;;;4972185;28;20195;-70
2023/03/15 09:30:27;;;;;;;5.50;3.07;;;8.10;99.90;;;;;;4972413;28;20464;-68
2023/03/15 09:32:53;;;;;;;4.63;2.23;;;7.60;99.90;;;;;;4973502;28;20424;-68
2023/03/15 09:35:20;;;;;;;2.40;2.10;;;7.30;99.90;;;;;;4972774;28;20494;-74
2023/03/15 09:37:47;;;;;;;4.23;2.97;;;7.20;99.90;;;;;;4973556;28;20684;-69
2023/03/15 09:40:37;;;;;;;4.57;1.93;;;7.20;99.90;;;;;;4971667;28;20447;-71
2023/03/15 09:43:05;;;;;;;9.03;2.90;;;7.00;99.90;;;;;;4966786;28;20499;-68
2023/03/15 09:46:03;;;;;;;3.67;1.90;;;6.80;99.90;;;;;;4996467;23;20455;-66
2023/03/15 09:48:42;;;;;;;7.03;2.10;;;6.70;99.90;;;;;;4988607;28;20526;-66
2023/03/15 09:51:23;;;;;;;4.43;2.63;;;6.80;99.90;;;;;;4987765;28;20463;-65
2023/03/15 09:53:59;;;;;;;4.10;2.17;;;6.80;99.90;;;;;;4989634;28;20525;-68
2023/03/15 09:56:35;;;;;;;3.80;2.40;;;6.90;99.90;;;;;;4991359;28;20458;-68
2023/03/15 09:59:01;;;;;;;7.83;1.80;;;6.90;99.90;;;;;;4991359;28;20437;-68
2023/03/15 10:01:34;;;;;;;3.60;1.87;;;7.10;99.90;;;;;;4991954;28;20976;-68
2023/03/15 10:04:28;;;;;;;5.20;2.00;;;7.30;99.90;;;;;;4991357;28;20434;-67
2023/03/15 10:07:00;;;;;;;3.90;2.00;;;7.20;99.90;;;;;;4986698;28;20470;-68
2023/03/15 10:09:31;;;;;;;6.73;2.13;;;7.30;99.90;;;;;;4990366;28;20951;-68
2023/03/15 10:12:03;;;;;;;1.90;1.60;;;7.70;99.90;;;;;;4985939;28;20949;-66
2023/03/15 10:15:00;;;;;;;1.97;1.50;;;8.30;99.90;;;;;;4992729;28;20427;-66
2023/03/15 10:17:25;;;;;;;4.87;2.20;;;9.20;99.90;;;;;;4991905;28;20454;-66
2023/03/15 10:19:57;;;;;;;3.00;2.20;;;9.40;99.70;;;;;;4991263;28;20458;-66
2023/03/15 10:22:46;;;;;;;1.60;1.50;;;9.10;99.90;;;;;;4989897;28;20179;-66
2023/03/15 10:25:29;;;;;;;2.40;1.80;;;9.10;99.50;;;;;;4990921;28;20521;-66
2023/03/15 10:28:24;;;;;;;3.63;1.77;;;9.00;99.90;;;;;;4984449;28;20434;-67
2023/03/15 10:30:50;;;;;;;4.00;2.00;;;9.60;98.90;;;;;;4984432;28;20458;-67
2023/03/15 10:33:33;;;;;;;4.40;1.83;;;9.70;96.90;;;;;;4991733;28;20998;-66
2023/03/15 10:36:00;;;;;;;4.53;1.90;;;10.20;97.80;;;;;;4985906;28;20458;-67
2023/03/15 10:38:26;;;;;;;1.97;1.43;;;11.00;94.80;;;;;;4990762;28;20523;-66
2023/03/15 10:40:54;;;;;;;4.40;1.80;;;11.40;92.20;;;;;;4991561;28;20442;-66
2023/03/15 10:43:24;;;;;;;4.83;1.83;;;12.40;89.00;;;;;;4991676;28;20518;-66
2023/03/15 10:46:05;;;;;;;2.70;1.57;;;12.80;84.20;;;;;;4990777;28;20556;-66
2023/03/15 10:48:33;;;;;;;4.90;1.57;;;12.10;83.50;;;;;;4990691;28;20545;-66
2023/03/15 10:51:24;;;;;;;4.30;1.87;;;11.60;85.10;;;;;;4991744;28;20462;-66
2023/03/15 10:53:56;;;;;;;2.87;1.40;;;12.00;85.60;;;;;;4993263;28;20785;-67
2023/03/15 10:56:35;;;;;;;4.30;1.90;;;12.80;83.40;;;;;;4995970;28;20443;-66
2023/03/15 10:59:01;;;;;;;3.23;1.93;;;12.90;82.50;;;;;;4995186;28;20421;-66
2023/03/15 11:01:33;;;;;;;5.00;1.73;;;13.60;80.40;;;;;;4995685;28;20521;-67
2023/03/15 11:04:18;;;;;;;4.80;2.97;;;13.60;76.00;;;;;;4995667;28;20210;-67
2023/03/15 11:06:43;;;;;;;2.40;1.50;;;12.80;76.90;;;;;;4980115;28;20438;-66
2023/03/15 11:09:13;;;;;;;3.97;1.67;;;11.80;81.20;;;;;;4994893;28;20424;-66
2023/03/15 11:12:01;;;;;;;3.37;1.50;;;10.90;83.20;;;;;;4995535;28;20191;-66
2023/03/15 11:14:40;;;;;;;3.47;2.07;;;10.20;88.00;;;;;;4995796;28;20795;-66
2023/03/15 11:17:15;;;;;;;1.37;0.93;;;9.60;91.60;;;;;;4995579;28;20839;-66
2023/03/15 11:19:44;;;;;;;3.73;1.17;;;9.20;92.90;;;;;;4994657;28;20428;-67
2023/03/15 11:22:12;;;;;;;5.33;2.13;;;8.80;93.80;;;;;;4994200;28;20846;-66
2023/03/15 11:24:38;;;;;;;6.70;2.90;;;8.80;94.60;;;;;;4994731;28;20963;-67
2023/03/15 11:27:12;;;;;;;3.23;1.90;;;8.70;95.70;;;;;;4994025;28;20461;-66
2023/03/15 11:29:41;;;;;;;4.00;1.27;;;8.60;96.30;;;;;;4994773;28;20430;-67
2023/03/15 11:32:17;;;;;;;1.27;1.13;;;8.60;95.80;;;;;;4993936;28;20975;-66
2023/03/15 11:35:05;;;;;;;2.50;1.50;;;8.70;95.80;;;;;;4988363;28;20461;-66
2023/03/15 11:37:48;;;;;;;3.00;1.47;;;8.60;96.20;;;;;;4993805;28;20451;-66
2023/03/15 11:40:21;;;;;;;2.87;1.17;;;8.70;95.40;;;;;;4994491;28;20406;-66
2023/03/15 11:43:00;;;;;;;2.57;1.20;;;8.90;95.00;;;;;;4993867;28;20439;-66
2023/03/15 11:45:34;;;;;;;7.30;1.43;;;8.80;95.10;;;;;;4996640;28;20439;-67
2023/03/15 11:48:15;;;;;;;3.17;1.80;;;8.90;95.20;;;;;;4994765;28;20442;-66
2023/03/15 11:50:40;;;;;;;1.60;1.13;;;8.90;94.80;;;;;;4993516;28;20455;-66
2023/03/15 11:53:09;;;;;;;4.70;1.20;;;9.00;92.60;;;;;;4994169;28;20493;-66
2023/03/15 11:55:36;;;;;;;2.50;1.67;;;9.00;92.30;;;;;;4993716;28;20179;-66
2023/03/15 11:58:26;;;;;;;1.70;1.00;;;9.00;92.60;;;;;;4993379;28;20588;-66
2023/03/15 12:01:00;;;;;;;0.90;0.90;;;8.90;90.30;;;;;;4987174;28;20442;-66
2023/03/15 12:03:42;;;;;;;2.00;0.70;;;8.70;89.20;;;;;;4993509;28;20557;-66
2023/03/15 12:06:15;;;;;;;1.00;0.87;;;8.90;88.80;;;;;;4992662;28;20805;-66
2023/03/15 12:08:51;;;;;;;1.67;0.90;;;8.80;87.70;;;;;;4993283;28;20469;-66
2023/03/15 12:11:22;;;;;;;1.43;1.00;;;8.70;89.80;;;;;;4993715;28;20485;-66
2023/03/15 12:14:03;;;;;;;2.57;1.30;;;8.80;89.20;;;;;;4991671;28;20451;-66
2023/03/15 12:16:39;;;;;;;1.80;1.60;;;8.80;88.70;;;;;;4993845;28;20964;-66
2023/03/15 12:19:14;;;;;;;3.10;2.07;;;8.90;90.00;;;;;;4993642;28;20963;-66
2023/03/15 12:21:44;;;;;;;2.83;1.00;;;9.10;90.40;;;;;;4993414;28;20858;-66
2023/03/15 12:24:33;;;;;;;1.50;0.97;;;9.50;88.20;;;;;;4994709;28;20822;-66
2023/03/15 12:27:17;;;;;;;1.40;1.30;;;9.70;87.80;;;;;;4993227;28;20466;-66
2023/03/15 12:29:45;;;;;;;2.40;1.17;;;9.90;88.50;;;;;;4991517;28;20478;-66
2023/03/15 12:32:13;;;;;;;1.60;0.90;;;10.10;86.50;;;;;;4993326;28;20474;-66
2023/03/15 12:34:52;;;;;;;2.00;1.10;;;9.70;85.90;;;;;;4993941;28;20462;-66
2023/03/15 12:37:19;;;;;;;3.10;2.30;;;9.80;86.40;;;;;;4989620;28;20449;-66
2023/03/15 12:39:51;;;;;;;1.07;0.90;;;9.90;87.60;;;;;;4993013;28;20430;-66
2023/03/15 12:42:28;;;;;;;2.23;1.27;;;10.00;86.90;;;;;;4989739;28;20814;-66
2023/03/15 12:45:15;;;;;;;1.60;1.30;;;10.10;85.70;;;;;;4986722;28;20466;-66
2023/03/15 12:47:50;;;;;;;3.37;1.37;;;10.10;86.30;;;;;;4992872;28;20466;-66
2023/03/15 12:50:49;;;;;;;2.57;1.17;;;10.40;86.10;;;;;;4992121;28;20453;-66
2023/03/15 12:53:38;;;;;;;3.57;1.40;;;10.20;87.00;;;;;;4993614;28;21070;-66
2023/03/15 12:56:39;;;;;;;1.23;1.13;;;10.20;88.20;;;;;;4993583;28;20446;-66
2023/03/15 12:59:15;;;;;;;3.07;1.10;;;10.20;87.90;;;;;;4992851;28;20821;-66
2023/03/15 13:01:41;;;;;;;4.10;1.00;;;10.00;89.60;;;;;;4993788;28;20427;-67
2023/03/15 13:04:10;;;;;;;2.60;1.40;;;9.70;90.30;;;;;;4993544;28;20438;-67
2023/03/15 13:06:49;;;;;;;1.80;1.10;;;9.50;91.00;;;;;;4993889;28;20442;-67